TimeWET,TemperatureF,Dew PointF,Humidity,Sea Level PressureIn,VisibilityMPH,Wind Direction,Wind SpeedMPH,Gust SpeedMPH,PrecipitationIn,Events,Conditions,WindDirDegrees,DateUTC
6:00 AM,53,22,17,,12,NNW,16.1,,,,Clear,340,2014-01-28 06:00:00
6:00 AM,53.6,21.2,28,29.98,-9999.0,NNW,16.1,-,N/A,,Clear,340,2014-01-28 06:00:00
7:00 AM,46.4,23.0,40,29.98,-9999.0,South,8.1,-,N/A,,Clear,170,2014-01-28 07:00:00
8:00 AM,48.2,21.2,34,29.98,-9999.0,SE,6.9,-,N/A,,Clear,140,2014-01-28 08:00:00
9:00 AM,49,26,29,,12,SE,4.6,,,,Clear,140,2014-01-28 09:00:00
9:00 AM,53.6,26.6,35,30.01,-9999.0,ESE,4.6,-,N/A,,Clear,120,2014-01-28 09:00:00
10:00 AM,53.6,26.6,35,30.01,-9999.0,ESE,4.6,-,N/A,,Clear,120,2014-01-28 10:00:00
11:00 AM,60.8,24.8,25,30.01,-9999.0,ESE,4.6,-,N/A,,Clear,120,2014-01-28 11:00:00
12:00 PM,65,23,10,,12,East,4.6,,,,Clear,100,2014-01-28 12:00:00
12:00 PM,64.4,23.0,21,30.01,-9999.0,East,4.6,-,N/A,,Clear,100,2014-01-28 12:00:00
1:00 PM,68.0,21.2,17,29.98,-9999.0,ESE,6.9,-,N/A,,Clear,120,2014-01-28 13:00:00
2:00 PM,69.8,14.0,12,29.92,-9999.0,SSW,9.2,-,N/A,,Clear,200,2014-01-28 14:00:00
3:00 PM,69,13,5,,12,SW,9.2,,,,,220,2014-01-28 15:00:00
3:00 PM,69.8,12.2,11,29.92,-9999.0,SW,9.2,-,N/A,,Clear,220,2014-01-28 15:00:00
4:00 PM,69.8,15.8,13,29.89,-9999.0,SW,10.4,-,N/A,,Clear,220,2014-01-28 16:00:00
5:00 PM,68.0,17.6,15,29.89,-9999.0,SSW,9.2,-,N/A,,Clear,200,2014-01-28 17:00:00
6:00 PM,65,19,8,,12,South,6.9,,,,,180,2014-01-28 18:00:00
6:00 PM,64.4,19.4,18,29.89,-9999.0,South,11.5,-,N/A,,Clear,180,2014-01-28 18:00:00
9:00 PM,59,25,16,,9,NW,4.6,,,,,320,2014-01-28 21:00:00
9:00 PM,59.0,24.8,27,29.92,-9999.0,NW,4.6,-,N/A,,Clear,320,2014-01-28 21:00:00